North Cornwall, Pennsylvania
Current Conditions -  °F | °C
As of 1:58 AM on Sunday 26 Oct 2014 (Local Time) from KMUI Reporting Station
Clear Clear  
Wind Chill: 63°   Ceiling: Unl
Heat Index: 63°   Visibility: 10mi
Dew Point: 41°   Wind: 10mph
Humidity: 43%   Direction: 270°W
Pressure: 29.62"   Gusts: 23mph
Location:  40.2957°N, 76.4189°W
Report Text: KMUI 260558Z AUTO 27009G20KT 10SM CLR 17/05 A2962 RMK AO2 SLP031 60000 T01740048 10183 20137 56008 $
Loading
Personal Weather Stations






























Interactive Weather Map
Tropical Storm Tracking
New forecast layout! Learn more

10-Day Weather Forecast

Advertisements
Track Severe Weather on mobile